sensor_id;sensor_type;location;lat;lon;timestamp;P1;durP1;ratioP1;P2;durP2;ratioP2
74967;SDS011;63523;51.880;12.630;2024-03-02T00:02:10;26.55;;;10.93;;
74967;SDS011;63523;51.880;12.630;2024-03-02T00:04:36;26.83;;;10.93;;
74967;SDS011;63523;51.880;12.630;2024-03-02T00:07:02;27.25;;;11.63;;
74967;SDS011;63523;51.880;12.630;2024-03-02T00:09:27;33.77;;;14.43;;
74967;SDS011;63523;51.880;12.630;2024-03-02T00:11:54;29.27;;;13.02;;
74967;SDS011;63523;51.880;12.630;2024-03-02T00:14:19;30.87;;;12.87;;
74967;SDS011;63523;51.880;12.630;2024-03-02T00:16:44;30.13;;;13.73;;
74967;SDS011;63523;51.880;12.630;2024-03-02T00:19:10;27.23;;;12.33;;
74967;SDS011;63523;51.880;12.630;2024-03-02T00:21:35;30.00;;;12.37;;
74967;SDS011;63523;51.880;12.630;2024-03-02T00:24:01;29.52;;;12.55;;
74967;SDS011;63523;51.880;12.630;2024-03-02T00:26:44;28.53;;;12.40;;
74967;SDS011;63523;51.880;12.630;2024-03-02T00:29:15;27.33;;;11.48;;
74967;SDS011;63523;51.880;12.630;2024-03-02T00:31:41;31.95;;;12.27;;
74967;SDS011;63523;51.880;12.630;2024-03-02T00:34:07;29.47;;;13.30;;
74967;SDS011;63523;51.880;12.630;2024-03-02T00:36:32;30.67;;;12.85;;
74967;SDS011;63523;51.880;12.630;2024-03-02T00:38:58;29.40;;;12.77;;
74967;SDS011;63523;51.880;12.630;2024-03-02T00:41:28;30.15;;;12.90;;
74967;SDS011;63523;51.880;12.630;2024-03-02T00:46:20;31.05;;;12.30;;
74967;SDS011;63523;51.880;12.630;2024-03-02T00:48:56;29.27;;;11.93;;
74967;SDS011;63523;51.880;12.630;2024-03-02T00:51:23;29.30;;;13.07;;
74967;SDS011;63523;51.880;12.630;2024-03-02T00:53:50;28.30;;;11.95;;
74967;SDS011;63523;51.880;12.630;2024-03-02T00:56:17;27.67;;;12.40;;
74967;SDS011;63523;51.880;12.630;2024-03-02T00:58:43;28.10;;;11.60;;
74967;SDS011;63523;51.880;12.630;2024-03-02T01:01:08;31.23;;;13.10;;
74967;SDS011;63523;51.880;12.630;2024-03-02T01:03:34;30.88;;;12.93;;
74967;SDS011;63523;51.880;12.630;2024-03-02T01:06:00;31.48;;;14.02;;
74967;SDS011;63523;51.880;12.630;2024-03-02T01:08:25;28.83;;;13.27;;
74967;SDS011;63523;51.880;12.630;2024-03-02T01:10:51;31.30;;;12.70;;
74967;SDS011;63523;51.880;12.630;2024-03-02T01:13:16;30.50;;;12.80;;
74967;SDS011;63523;51.880;12.630;2024-03-02T01:15:42;29.93;;;12.63;;
74967;SDS011;63523;51.880;12.630;2024-03-02T01:18:07;29.10;;;13.43;;
74967;SDS011;63523;51.880;12.630;2024-03-02T01:20:32;28.07;;;12.77;;
74967;SDS011;63523;51.880;12.630;2024-03-02T01:22:58;31.20;;;12.07;;
74967;SDS011;63523;51.880;12.630;2024-03-02T01:25:23;26.90;;;11.80;;
74967;SDS011;63523;51.880;12.630;2024-03-02T01:27:48;27.80;;;11.77;;
74967;SDS011;63523;51.880;12.630;2024-03-02T01:30:14;25.83;;;11.23;;
74967;SDS011;63523;51.880;12.630;2024-03-02T01:32:39;27.37;;;11.70;;
74967;SDS011;63523;51.880;12.630;2024-03-02T01:35:05;26.53;;;11.63;;
74967;SDS011;63523;51.880;12.630;2024-03-02T01:37:30;30.33;;;13.13;;
74967;SDS011;63523;51.880;12.630;2024-03-02T01:39:56;28.50;;;11.80;;
74967;SDS011;63523;51.880;12.630;2024-03-02T01:42:21;29.00;;;12.40;;
74967;SDS011;63523;51.880;12.630;2024-03-02T01:44:47;33.50;;;13.10;;
74967;SDS011;63523;51.880;12.630;2024-03-02T01:47:12;27.57;;;10.53;;
74967;SDS011;63523;51.880;12.630;2024-03-02T01:49:37;25.63;;;10.87;;
74967;SDS011;63523;51.880;12.630;2024-03-02T01:52:03;25.85;;;10.00;;
74967;SDS011;63523;51.880;12.630;2024-03-02T01:54:29;23.80;;;9.53;;
74967;SDS011;63523;51.880;12.630;2024-03-02T01:56:54;24.30;;;10.13;;
74967;SDS011;63523;51.880;12.630;2024-03-02T01:59:20;27.27;;;11.07;;
74967;SDS011;63523;51.880;12.630;2024-03-02T02:01:45;31.30;;;11.87;;
74967;SDS011;63523;51.880;12.630;2024-03-02T02:04:10;34.00;;;12.03;;
74967;SDS011;63523;51.880;12.630;2024-03-02T02:06:36;30.93;;;13.40;;
74967;SDS011;63523;51.880;12.630;2024-03-02T02:09:01;29.33;;;12.43;;
74967;SDS011;63523;51.880;12.630;2024-03-02T02:11:26;31.83;;;12.60;;
74967;SDS011;63523;51.880;12.630;2024-03-02T02:13:52;29.70;;;12.00;;
74967;SDS011;63523;51.880;12.630;2024-03-02T02:16:20;32.33;;;12.13;;
74967;SDS011;63523;51.880;12.630;2024-03-02T02:18:45;30.37;;;11.63;;
74967;SDS011;63523;51.880;12.630;2024-03-02T02:21:10;26.73;;;11.60;;
74967;SDS011;63523;51.880;12.630;2024-03-02T02:23:36;30.43;;;11.53;;
74967;SDS011;63523;51.880;12.630;2024-03-02T02:26:01;33.25;;;12.57;;
74967;SDS011;63523;51.880;12.630;2024-03-02T02:28:28;34.58;;;13.05;;
74967;SDS011;63523;51.880;12.630;2024-03-02T02:30:54;32.47;;;12.20;;
74967;SDS011;63523;51.880;12.630;2024-03-02T02:33:21;33.63;;;13.48;;
74967;SDS011;63523;51.880;12.630;2024-03-02T02:35:46;32.73;;;13.30;;
74967;SDS011;63523;51.880;12.630;2024-03-02T02:38:11;33.03;;;12.93;;
74967;SDS011;63523;51.880;12.630;2024-03-02T02:40:37;33.77;;;12.77;;
74967;SDS011;63523;51.880;12.630;2024-03-02T02:43:02;37.03;;;14.00;;
74967;SDS011;63523;51.880;12.630;2024-03-02T02:45:27;34.43;;;13.33;;
74967;SDS011;63523;51.880;12.630;2024-03-02T02:47:52;33.50;;;13.67;;
74967;SDS011;63523;51.880;12.630;2024-03-02T02:50:18;36.67;;;13.80;;
74967;SDS011;63523;51.880;12.630;2024-03-02T02:52:43;36.53;;;13.40;;
74967;SDS011;63523;51.880;12.630;2024-03-02T02:55:09;34.03;;;13.63;;
74967;SDS011;63523;51.880;12.630;2024-03-02T02:57:36;34.95;;;13.52;;
74967;SDS011;63523;51.880;12.630;2024-03-02T03:00:07;36.70;;;13.80;;
74967;SDS011;63523;51.880;12.630;2024-03-02T03:02:39;36.85;;;14.57;;
74967;SDS011;63523;51.880;12.630;2024-03-02T03:05:06;36.88;;;14.35;;
74967;SDS011;63523;51.880;12.630;2024-03-02T03:07:33;35.30;;;12.67;;
74967;SDS011;63523;51.880;12.630;2024-03-02T03:09:59;32.97;;;12.85;;
74967;SDS011;63523;51.880;12.630;2024-03-02T03:12:24;32.83;;;13.30;;
74967;SDS011;63523;51.880;12.630;2024-03-02T03:14:49;33.93;;;12.90;;
74967;SDS011;63523;51.880;12.630;2024-03-02T03:17:15;33.53;;;13.00;;
74967;SDS011;63523;51.880;12.630;2024-03-02T03:19:40;34.80;;;13.43;;
74967;SDS011;63523;51.880;12.630;2024-03-02T03:22:05;33.33;;;12.53;;
74967;SDS011;63523;51.880;12.630;2024-03-02T03:24:30;34.50;;;13.43;;
74967;SDS011;63523;51.880;12.630;2024-03-02T03:26:57;33.60;;;12.85;;
74967;SDS011;63523;51.880;12.630;2024-03-02T03:29:23;28.47;;;12.53;;
74967;SDS011;63523;51.880;12.630;2024-03-02T03:31:48;31.43;;;13.77;;
74967;SDS011;63523;51.880;12.630;2024-03-02T03:34:13;33.43;;;13.23;;
74967;SDS011;63523;51.880;12.630;2024-03-02T03:36:40;34.00;;;12.77;;
74967;SDS011;63523;51.880;12.630;2024-03-02T03:39:07;30.92;;;12.70;;
74967;SDS011;63523;51.880;12.630;2024-03-02T03:41:32;31.70;;;12.87;;
74967;SDS011;63523;51.880;12.630;2024-03-02T03:43:58;29.37;;;12.00;;
74967;SDS011;63523;51.880;12.630;2024-03-02T03:46:23;29.60;;;12.47;;
74967;SDS011;63523;51.880;12.630;2024-03-02T03:48:48;30.27;;;12.17;;
74967;SDS011;63523;51.880;12.630;2024-03-02T03:51:14;28.65;;;11.60;;
74967;SDS011;63523;51.880;12.630;2024-03-02T03:53:39;29.20;;;11.87;;
74967;SDS011;63523;51.880;12.630;2024-03-02T03:56:04;29.10;;;11.50;;
74967;SDS011;63523;51.880;12.630;2024-03-02T03:58:30;29.00;;;12.50;;
74967;SDS011;63523;51.880;12.630;2024-03-02T04:00:55;30.87;;;12.40;;
74967;SDS011;63523;51.880;12.630;2024-03-02T04:03:21;28.20;;;11.47;;
74967;SDS011;63523;51.880;12.630;2024-03-02T04:05:46;34.07;;;13.60;;
74967;SDS011;63523;51.880;12.630;2024-03-02T04:08:11;33.67;;;12.53;;
74967;SDS011;63523;51.880;12.630;2024-03-02T04:10:36;27.93;;;11.53;;
74967;SDS011;63523;51.880;12.630;2024-03-02T04:13:02;26.63;;;10.87;;
74967;SDS011;63523;51.880;12.630;2024-03-02T04:15:27;30.10;;;12.40;;
74967;SDS011;63523;51.880;12.630;2024-03-02T04:17:52;28.47;;;11.30;;
74967;SDS011;63523;51.880;12.630;2024-03-02T04:20:17;30.23;;;12.13;;
74967;SDS011;63523;51.880;12.630;2024-03-02T04:22:43;31.17;;;12.50;;
74967;SDS011;63523;51.880;12.630;2024-03-02T04:25:08;24.70;;;10.87;;
74967;SDS011;63523;51.880;12.630;2024-03-02T04:27:34;27.35;;;11.38;;
74967;SDS011;63523;51.880;12.630;2024-03-02T04:29:59;28.53;;;11.33;;
74967;SDS011;63523;51.880;12.630;2024-03-02T04:32:25;30.57;;;11.73;;
74967;SDS011;63523;51.880;12.630;2024-03-02T04:34:51;30.98;;;12.07;;
74967;SDS011;63523;51.880;12.630;2024-03-02T04:37:16;32.07;;;12.50;;
74967;SDS011;63523;51.880;12.630;2024-03-02T04:39:42;29.60;;;12.33;;
74967;SDS011;63523;51.880;12.630;2024-03-02T04:42:07;32.17;;;13.00;;
74967;SDS011;63523;51.880;12.630;2024-03-02T04:44:32;30.60;;;12.90;;
74967;SDS011;63523;51.880;12.630;2024-03-02T04:46:57;29.67;;;12.43;;
74967;SDS011;63523;51.880;12.630;2024-03-02T04:49:23;32.73;;;13.33;;
74967;SDS011;63523;51.880;12.630;2024-03-02T04:51:48;32.27;;;13.33;;
74967;SDS011;63523;51.880;12.630;2024-03-02T04:54:13;33.50;;;12.60;;
74967;SDS011;63523;51.880;12.630;2024-03-02T04:56:39;34.40;;;13.77;;
74967;SDS011;63523;51.880;12.630;2024-03-02T04:59:14;33.03;;;12.57;;
74967;SDS011;63523;51.880;12.630;2024-03-02T05:01:40;31.93;;;12.87;;
74967;SDS011;63523;51.880;12.630;2024-03-02T05:04:05;30.63;;;12.87;;
74967;SDS011;63523;51.880;12.630;2024-03-02T05:06:30;29.20;;;12.67;;
74967;SDS011;63523;51.880;12.630;2024-03-02T05:08:56;28.35;;;11.45;;
74967;SDS011;63523;51.880;12.630;2024-03-02T05:11:21;31.33;;;12.30;;
74967;SDS011;63523;51.880;12.630;2024-03-02T05:14:05;31.13;;;11.75;;
74967;SDS011;63523;51.880;12.630;2024-03-02T05:16:34;28.90;;;11.63;;
74967;SDS011;63523;51.880;12.630;2024-03-02T05:19:03;26.55;;;12.15;;
74967;SDS011;63523;51.880;12.630;2024-03-02T05:21:31;27.80;;;11.43;;
74967;SDS011;63523;51.880;12.630;2024-03-02T05:23:56;32.37;;;12.60;;
74967;SDS011;63523;51.880;12.630;2024-03-02T05:26:22;27.67;;;11.63;;
74967;SDS011;63523;51.880;12.630;2024-03-02T05:28:47;29.50;;;10.90;;
74967;SDS011;63523;51.880;12.630;2024-03-02T05:31:14;27.13;;;11.20;;
74967;SDS011;63523;51.880;12.630;2024-03-02T05:33:40;28.40;;;11.73;;
74967;SDS011;63523;51.880;12.630;2024-03-02T05:36:06;27.10;;;11.37;;
74967;SDS011;63523;51.880;12.630;2024-03-02T05:38:32;23.45;;;10.43;;
74967;SDS011;63523;51.880;12.630;2024-03-02T05:40:59;23.90;;;10.07;;
74967;SDS011;63523;51.880;12.630;2024-03-02T05:43:24;25.23;;;9.80;;
74967;SDS011;63523;51.880;12.630;2024-03-02T05:45:50;24.67;;;10.50;;
74967;SDS011;63523;51.880;12.630;2024-03-02T05:48:15;24.03;;;10.23;;
74967;SDS011;63523;51.880;12.630;2024-03-02T05:50:40;25.23;;;10.20;;
74967;SDS011;63523;51.880;12.630;2024-03-02T05:53:05;25.13;;;9.93;;
74967;SDS011;63523;51.880;12.630;2024-03-02T05:55:31;24.50;;;10.50;;
74967;SDS011;63523;51.880;12.630;2024-03-02T05:57:56;27.93;;;11.53;;
74967;SDS011;63523;51.880;12.630;2024-03-02T06:00:27;25.27;;;10.20;;
74967;SDS011;63523;51.880;12.630;2024-03-02T06:02:52;26.07;;;11.37;;
74967;SDS011;63523;51.880;12.630;2024-03-02T06:05:18;29.23;;;11.43;;
74967;SDS011;63523;51.880;12.630;2024-03-02T06:07:43;27.65;;;12.30;;
74967;SDS011;63523;51.880;12.630;2024-03-02T06:10:09;29.37;;;12.07;;
74967;SDS011;63523;51.880;12.630;2024-03-02T06:12:34;28.07;;;11.70;;
74967;SDS011;63523;51.880;12.630;2024-03-02T06:15:02;30.08;;;12.60;;
74967;SDS011;63523;51.880;12.630;2024-03-02T06:17:28;29.70;;;11.90;;
74967;SDS011;63523;51.880;12.630;2024-03-02T06:19:54;31.30;;;13.10;;
74967;SDS011;63523;51.880;12.630;2024-03-02T06:22:19;29.90;;;12.13;;
74967;SDS011;63523;51.880;12.630;2024-03-02T06:24:44;33.77;;;12.93;;
74967;SDS011;63523;51.880;12.630;2024-03-02T06:27:09;31.13;;;12.93;;
74967;SDS011;63523;51.880;12.630;2024-03-02T06:29:35;30.03;;;12.07;;
74967;SDS011;63523;51.880;12.630;2024-03-02T06:32:00;32.23;;;13.37;;
74967;SDS011;63523;51.880;12.630;2024-03-02T06:34:25;34.30;;;12.97;;
74967;SDS011;63523;51.880;12.630;2024-03-02T06:36:51;27.40;;;10.70;;
74967;SDS011;63523;51.880;12.630;2024-03-02T06:39:17;26.53;;;11.60;;
74967;SDS011;63523;51.880;12.630;2024-03-02T06:41:42;32.83;;;13.25;;
74967;SDS011;63523;51.880;12.630;2024-03-02T06:44:07;32.40;;;12.33;;
74967;SDS011;63523;51.880;12.630;2024-03-02T06:46:33;28.70;;;12.00;;
74967;SDS011;63523;51.880;12.630;2024-03-02T06:48:58;36.03;;;14.40;;
74967;SDS011;63523;51.880;12.630;2024-03-02T06:51:23;35.17;;;14.20;;
74967;SDS011;63523;51.880;12.630;2024-03-02T06:53:49;35.07;;;13.90;;
74967;SDS011;63523;51.880;12.630;2024-03-02T06:56:14;33.50;;;13.87;;
74967;SDS011;63523;51.880;12.630;2024-03-02T06:58:39;32.67;;;14.03;;
74967;SDS011;63523;51.880;12.630;2024-03-02T07:01:04;37.87;;;13.50;;
74967;SDS011;63523;51.880;12.630;2024-03-02T07:03:30;33.43;;;14.00;;
74967;SDS011;63523;51.880;12.630;2024-03-02T07:05:55;29.80;;;12.27;;
74967;SDS011;63523;51.880;12.630;2024-03-02T07:08:20;33.90;;;13.20;;
74967;SDS011;63523;51.880;12.630;2024-03-02T07:10:45;34.03;;;14.27;;
74967;SDS011;63523;51.880;12.630;2024-03-02T07:13:12;29.58;;;12.95;;
74967;SDS011;63523;51.880;12.630;2024-03-02T07:15:38;33.92;;;13.30;;
74967;SDS011;63523;51.880;12.630;2024-03-02T07:18:32;30.47;;;12.80;;
74967;SDS011;63523;51.880;12.630;2024-03-02T07:20:58;29.35;;;12.25;;
74967;SDS011;63523;51.880;12.630;2024-03-02T07:23:25;34.75;;;13.40;;
74967;SDS011;63523;51.880;12.630;2024-03-02T07:25:52;30.48;;;11.77;;
74967;SDS011;63523;51.880;12.630;2024-03-02T07:28:21;30.70;;;13.15;;
74967;SDS011;63523;51.880;12.630;2024-03-02T07:30:46;26.80;;;11.57;;
74967;SDS011;63523;51.880;12.630;2024-03-02T07:33:12;25.13;;;11.33;;
74967;SDS011;63523;51.880;12.630;2024-03-02T07:35:37;30.83;;;11.70;;
74967;SDS011;63523;51.880;12.630;2024-03-02T07:38:02;32.93;;;13.20;;
74967;SDS011;63523;51.880;12.630;2024-03-02T07:40:28;29.20;;;12.53;;
74967;SDS011;63523;51.880;12.630;2024-03-02T07:42:53;26.67;;;11.80;;
74967;SDS011;63523;51.880;12.630;2024-03-02T07:45:18;31.10;;;12.40;;
74967;SDS011;63523;51.880;12.630;2024-03-02T07:47:44;24.97;;;11.17;;
74967;SDS011;63523;51.880;12.630;2024-03-02T07:50:09;26.47;;;11.63;;
74967;SDS011;63523;51.880;12.630;2024-03-02T07:52:35;28.47;;;12.43;;
74967;SDS011;63523;51.880;12.630;2024-03-02T07:55:00;26.65;;;11.63;;
74967;SDS011;63523;51.880;12.630;2024-03-02T07:57:25;28.30;;;11.33;;
74967;SDS011;63523;51.880;12.630;2024-03-02T07:59:51;26.88;;;11.48;;
74967;SDS011;63523;51.880;12.630;2024-03-02T08:02:17;30.00;;;12.03;;
74967;SDS011;63523;51.880;12.630;2024-03-02T08:04:42;27.80;;;12.87;;
74967;SDS011;63523;51.880;12.630;2024-03-02T08:07:08;26.53;;;11.73;;
74967;SDS011;63523;51.880;12.630;2024-03-02T08:09:34;28.30;;;12.05;;
74967;SDS011;63523;51.880;12.630;2024-03-02T08:11:59;30.63;;;11.70;;
74967;SDS011;63523;51.880;12.630;2024-03-02T08:14:25;31.83;;;11.30;;
74967;SDS011;63523;51.880;12.630;2024-03-02T08:16:50;28.37;;;11.33;;
74967;SDS011;63523;51.880;12.630;2024-03-02T08:19:15;27.90;;;11.50;;
74967;SDS011;63523;51.880;12.630;2024-03-02T08:21:41;26.57;;;10.70;;
74967;SDS011;63523;51.880;12.630;2024-03-02T08:24:07;24.73;;;11.00;;
74967;SDS011;63523;51.880;12.630;2024-03-02T08:26:32;25.63;;;10.63;;
74967;SDS011;63523;51.880;12.630;2024-03-02T08:28:58;26.83;;;10.97;;
74967;SDS011;63523;51.880;12.630;2024-03-02T08:31:24;31.63;;;13.15;;
74967;SDS011;63523;51.880;12.630;2024-03-02T08:33:49;29.60;;;12.27;;
74967;SDS011;63523;51.880;12.630;2024-03-02T08:36:14;27.50;;;12.10;;
74967;SDS011;63523;51.880;12.630;2024-03-02T08:38:40;31.35;;;11.85;;
74967;SDS011;63523;51.880;12.630;2024-03-02T08:41:06;33.77;;;12.90;;
74967;SDS011;63523;51.880;12.630;2024-03-02T08:43:32;29.20;;;11.75;;
74967;SDS011;63523;51.880;12.630;2024-03-02T08:45:57;28.87;;;12.17;;
74967;SDS011;63523;51.880;12.630;2024-03-02T08:48:23;31.33;;;11.93;;
74967;SDS011;63523;51.880;12.630;2024-03-02T08:50:48;29.37;;;12.90;;
74967;SDS011;63523;51.880;12.630;2024-03-02T08:53:13;28.10;;;12.27;;
74967;SDS011;63523;51.880;12.630;2024-03-02T08:55:43;28.93;;;12.17;;
74967;SDS011;63523;51.880;12.630;2024-03-02T08:58:08;30.42;;;12.45;;
74967;SDS011;63523;51.880;12.630;2024-03-02T09:00:33;31.03;;;12.50;;
74967;SDS011;63523;51.880;12.630;2024-03-02T09:02:59;31.43;;;12.10;;
74967;SDS011;63523;51.880;12.630;2024-03-02T09:05:24;29.30;;;11.67;;
74967;SDS011;63523;51.880;12.630;2024-03-02T09:07:49;28.40;;;11.67;;
74967;SDS011;63523;51.880;12.630;2024-03-02T09:10:14;28.60;;;12.07;;
74967;SDS011;63523;51.880;12.630;2024-03-02T09:12:40;29.67;;;12.27;;
74967;SDS011;63523;51.880;12.630;2024-03-02T09:15:06;26.17;;;10.65;;
74967;SDS011;63523;51.880;12.630;2024-03-02T09:17:31;27.53;;;11.40;;
74967;SDS011;63523;51.880;12.630;2024-03-02T09:19:57;28.73;;;12.00;;
74967;SDS011;63523;51.880;12.630;2024-03-02T09:22:22;29.40;;;11.10;;
74967;SDS011;63523;51.880;12.630;2024-03-02T09:24:48;25.10;;;10.03;;
74967;SDS011;63523;51.880;12.630;2024-03-02T09:27:13;25.70;;;10.53;;
74967;SDS011;63523;51.880;12.630;2024-03-02T09:29:38;27.23;;;11.10;;
74967;SDS011;63523;51.880;12.630;2024-03-02T09:32:05;24.75;;;10.57;;
74967;SDS011;63523;51.880;12.630;2024-03-02T09:34:31;23.93;;;9.80;;
74967;SDS011;63523;51.880;12.630;2024-03-02T09:36:56;23.40;;;9.93;;
74967;SDS011;63523;51.880;12.630;2024-03-02T09:39:22;25.10;;;10.80;;
74967;SDS011;63523;51.880;12.630;2024-03-02T09:41:48;25.93;;;10.53;;
74967;SDS011;63523;51.880;12.630;2024-03-02T09:44:13;29.70;;;11.67;;
74967;SDS011;63523;51.880;12.630;2024-03-02T09:46:39;26.87;;;11.00;;
74967;SDS011;63523;51.880;12.630;2024-03-02T09:49:04;26.03;;;10.50;;
74967;SDS011;63523;51.880;12.630;2024-03-02T09:51:30;24.00;;;10.90;;
74967;SDS011;63523;51.880;12.630;2024-03-02T09:53:56;23.40;;;10.13;;
74967;SDS011;63523;51.880;12.630;2024-03-02T09:56:22;26.53;;;11.17;;
74967;SDS011;63523;51.880;12.630;2024-03-02T09:58:47;26.63;;;11.80;;
74967;SDS011;63523;51.880;12.630;2024-03-02T10:01:12;24.17;;;10.73;;
74967;SDS011;63523;51.880;12.630;2024-03-02T10:03:38;26.63;;;10.17;;
74967;SDS011;63523;51.880;12.630;2024-03-02T10:06:19;24.95;;;10.50;;
74967;SDS011;63523;51.880;12.630;2024-03-02T10:08:45;26.35;;;10.30;;
74967;SDS011;63523;51.880;12.630;2024-03-02T10:11:11;24.27;;;10.67;;
74967;SDS011;63523;51.880;12.630;2024-03-02T10:13:48;24.27;;;10.60;;
74967;SDS011;63523;51.880;12.630;2024-03-02T10:16:14;24.00;;;10.80;;
74967;SDS011;63523;51.880;12.630;2024-03-02T10:18:39;28.10;;;10.63;;
74967;SDS011;63523;51.880;12.630;2024-03-02T10:21:13;25.90;;;11.03;;
74967;SDS011;63523;51.880;12.630;2024-03-02T10:23:40;25.27;;;10.45;;
74967;SDS011;63523;51.880;12.630;2024-03-02T10:26:16;24.97;;;10.27;;
74967;SDS011;63523;51.880;12.630;2024-03-02T10:28:46;24.35;;;10.15;;
74967;SDS011;63523;51.880;12.630;2024-03-02T10:31:17;22.50;;;10.93;;
74967;SDS011;63523;51.880;12.630;2024-03-02T10:33:42;25.83;;;10.57;;
74967;SDS011;63523;51.880;12.630;2024-03-02T10:36:07;23.80;;;10.23;;
74967;SDS011;63523;51.880;12.630;2024-03-02T10:38:33;25.47;;;11.37;;
74967;SDS011;63523;51.880;12.630;2024-03-02T10:40:58;25.07;;;10.93;;
74967;SDS011;63523;51.880;12.630;2024-03-02T10:43:25;24.77;;;11.20;;
74967;SDS011;63523;51.880;12.630;2024-03-02T10:45:51;26.40;;;11.40;;
74967;SDS011;63523;51.880;12.630;2024-03-02T10:48:17;26.83;;;11.07;;
74967;SDS011;63523;51.880;12.630;2024-03-02T10:50:42;27.25;;;10.57;;
74967;SDS011;63523;51.880;12.630;2024-03-02T10:53:08;26.70;;;10.93;;
74967;SDS011;63523;51.880;12.630;2024-03-02T10:55:33;28.20;;;11.43;;
74967;SDS011;63523;51.880;12.630;2024-03-02T10:57:58;26.00;;;10.73;;
74967;SDS011;63523;51.880;12.630;2024-03-02T11:00:27;25.83;;;10.23;;
74967;SDS011;63523;51.880;12.630;2024-03-02T11:02:58;27.33;;;11.38;;
74967;SDS011;63523;51.880;12.630;2024-03-02T11:05:34;25.97;;;10.33;;
74967;SDS011;63523;51.880;12.630;2024-03-02T11:08:02;26.23;;;11.82;;
74967;SDS011;63523;51.880;12.630;2024-03-02T11:10:35;23.70;;;10.73;;
74967;SDS011;63523;51.880;12.630;2024-03-02T11:13:05;27.02;;;10.30;;
74967;SDS011;63523;51.880;12.630;2024-03-02T11:15:34;22.45;;;9.75;;
74967;SDS011;63523;51.880;12.630;2024-03-02T11:18:01;21.07;;;9.33;;
74967;SDS011;63523;51.880;12.630;2024-03-02T11:20:30;21.52;;;8.95;;
74967;SDS011;63523;51.880;12.630;2024-03-02T11:22:56;22.33;;;9.73;;
74967;SDS011;63523;51.880;12.630;2024-03-02T11:25:25;23.30;;;9.57;;
74967;SDS011;63523;51.880;12.630;2024-03-02T11:32:58;16.63;;;7.03;;
74967;SDS011;63523;51.880;12.630;2024-03-02T11:35:25;16.23;;;6.78;;
74967;SDS011;63523;51.880;12.630;2024-03-02T11:37:51;19.52;;;7.32;;
74967;SDS011;63523;51.880;12.630;2024-03-02T11:40:22;17.35;;;7.30;;
74967;SDS011;63523;51.880;12.630;2024-03-02T11:42:48;17.30;;;7.40;;
74967;SDS011;63523;51.880;12.630;2024-03-02T11:45:16;17.30;;;6.87;;
74967;SDS011;63523;51.880;12.630;2024-03-02T11:47:42;14.68;;;6.07;;
74967;SDS011;63523;51.880;12.630;2024-03-02T11:50:15;17.53;;;6.93;;
74967;SDS011;63523;51.880;12.630;2024-03-02T11:52:40;18.88;;;7.03;;
74967;SDS011;63523;51.880;12.630;2024-03-02T11:55:07;15.27;;;6.07;;
74967;SDS011;63523;51.880;12.630;2024-03-02T11:57:34;15.35;;;5.72;;
74967;SDS011;63523;51.880;12.630;2024-03-02T12:00:00;14.68;;;5.30;;
74967;SDS011;63523;51.880;12.630;2024-03-02T12:02:28;13.40;;;5.72;;
74967;SDS011;63523;51.880;12.630;2024-03-02T12:04:54;13.80;;;5.40;;
74967;SDS011;63523;51.880;12.630;2024-03-02T12:07:21;15.57;;;6.35;;
74967;SDS011;63523;51.880;12.630;2024-03-02T12:09:47;12.90;;;4.93;;
74967;SDS011;63523;51.880;12.630;2024-03-02T12:12:13;14.87;;;5.57;;
74967;SDS011;63523;51.880;12.630;2024-03-02T12:14:49;14.05;;;4.90;;
74967;SDS011;63523;51.880;12.630;2024-03-02T12:17:16;11.15;;;4.22;;
74967;SDS011;63523;51.880;12.630;2024-03-02T12:19:41;11.57;;;4.33;;
74967;SDS011;63523;51.880;12.630;2024-03-02T12:22:06;9.13;;;4.13;;
74967;SDS011;63523;51.880;12.630;2024-03-02T12:24:31;11.60;;;4.67;;
74967;SDS011;63523;51.880;12.630;2024-03-02T12:26:57;11.43;;;4.87;;
74967;SDS011;63523;51.880;12.630;2024-03-02T12:29:22;11.95;;;5.05;;
74967;SDS011;63523;51.880;12.630;2024-03-02T12:31:49;14.73;;;4.97;;
74967;SDS011;63523;51.880;12.630;2024-03-02T12:34:16;10.48;;;4.25;;
74967;SDS011;63523;51.880;12.630;2024-03-02T12:36:42;11.27;;;4.32;;
74967;SDS011;63523;51.880;12.630;2024-03-02T12:39:08;13.02;;;4.93;;
74967;SDS011;63523;51.880;12.630;2024-03-02T12:41:37;12.20;;;4.80;;
74967;SDS011;63523;51.880;12.630;2024-03-02T12:44:02;11.55;;;4.90;;
74967;SDS011;63523;51.880;12.630;2024-03-02T12:46:28;14.93;;;6.10;;
74967;SDS011;63523;51.880;12.630;2024-03-02T12:48:54;13.13;;;5.60;;
74967;SDS011;63523;51.880;12.630;2024-03-02T12:51:19;14.50;;;6.00;;
74967;SDS011;63523;51.880;12.630;2024-03-02T12:53:44;13.30;;;5.23;;
74967;SDS011;63523;51.880;12.630;2024-03-02T12:56:10;18.13;;;6.50;;
74967;SDS011;63523;51.880;12.630;2024-03-02T12:58:39;15.30;;;6.35;;
74967;SDS011;63523;51.880;12.630;2024-03-02T13:01:06;14.90;;;5.70;;
74967;SDS011;63523;51.880;12.630;2024-03-02T13:03:35;14.13;;;5.70;;
74967;SDS011;63523;51.880;12.630;2024-03-02T13:06:04;14.43;;;6.70;;
74967;SDS011;63523;51.880;12.630;2024-03-02T13:08:30;15.30;;;6.20;;
74967;SDS011;63523;51.880;12.630;2024-03-02T13:10:56;15.57;;;6.10;;
74967;SDS011;63523;51.880;12.630;2024-03-02T13:13:21;16.88;;;6.53;;
74967;SDS011;63523;51.880;12.630;2024-03-02T13:15:48;13.10;;;5.40;;
74967;SDS011;63523;51.880;12.630;2024-03-02T13:18:13;15.82;;;6.30;;
74967;SDS011;63523;51.880;12.630;2024-03-02T13:20:38;13.30;;;5.53;;
74967;SDS011;63523;51.880;12.630;2024-03-02T13:23:04;13.40;;;5.93;;
74967;SDS011;63523;51.880;12.630;2024-03-02T13:25:30;14.45;;;5.80;;
74967;SDS011;63523;51.880;12.630;2024-03-02T13:27:56;15.33;;;6.47;;
74967;SDS011;63523;51.880;12.630;2024-03-02T13:30:22;13.48;;;5.82;;
74967;SDS011;63523;51.880;12.630;2024-03-02T13:32:47;13.37;;;6.17;;
74967;SDS011;63523;51.880;12.630;2024-03-02T13:35:12;13.90;;;5.00;;
74967;SDS011;63523;51.880;12.630;2024-03-02T13:37:38;14.47;;;5.53;;
74967;SDS011;63523;51.880;12.630;2024-03-02T13:40:03;14.03;;;5.70;;
74967;SDS011;63523;51.880;12.630;2024-03-02T13:42:29;14.07;;;5.55;;
74967;SDS011;63523;51.880;12.630;2024-03-02T13:44:55;12.70;;;5.33;;
74967;SDS011;63523;51.880;12.630;2024-03-02T13:47:20;14.90;;;5.97;;
74967;SDS011;63523;51.880;12.630;2024-03-02T13:49:46;16.00;;;6.50;;
74967;SDS011;63523;51.880;12.630;2024-03-02T13:52:13;14.57;;;6.25;;
74967;SDS011;63523;51.880;12.630;2024-03-02T13:54:39;15.83;;;6.17;;
74967;SDS011;63523;51.880;12.630;2024-03-02T13:57:07;14.38;;;5.68;;
74967;SDS011;63523;51.880;12.630;2024-03-02T13:59:33;12.95;;;5.10;;
74967;SDS011;63523;51.880;12.630;2024-03-02T14:01:59;13.00;;;5.60;;
74967;SDS011;63523;51.880;12.630;2024-03-02T14:04:25;11.57;;;5.13;;
74967;SDS011;63523;51.880;12.630;2024-03-02T14:06:50;9.67;;;4.47;;
74967;SDS011;63523;51.880;12.630;2024-03-02T14:09:16;11.93;;;5.07;;
74967;SDS011;63523;51.880;12.630;2024-03-02T14:11:41;10.90;;;4.43;;
74967;SDS011;63523;51.880;12.630;2024-03-02T14:14:06;11.93;;;4.70;;